Time;durP1;ratioP1;P1;durP2;ratioP2;P2;SDS_P1;SDS_P2;PMS_P1;PMS_P2;Temp;Humidity;BMP_temperature;BMP_pressure;BME280_temperature;BME280_humidity;BME280_pressure;Samples;Min_cycle;Max_cycle;Signal;HPM_P1;HPM_P2
2022/11/17 00:01:39;;;;;;;5.90;3.20;;;;;;;3.66;69.41;99719.42;105071;1292;98492;-80
2022/11/17 00:04:10;;;;;;;5.80;3.30;;;;;;;3.68;70.12;99719.05;105061;1297;108285;-79
2022/11/17 00:06:40;;;;;;;5.70;3.00;;;;;;;3.72;69.65;99712.35;104989;1299;139992;-81
2022/11/17 00:09:16;;;;;;;5.80;3.30;;;;;;;3.69;69.65;99717.81;105081;1304;93239;-80
2022/11/17 00:14:39;;;;;;;5.00;2.70;;;;;;;3.80;69.30;99713.33;105074;1305;96987;-80
2022/11/17 00:17:12;;;;;;;5.30;2.70;;;;;;;3.72;68.56;99723.94;104944;1297;138814;-78
2022/11/17 00:22:31;;;;;;;5.00;2.60;;;;;;;3.55;68.74;99722.34;104931;1297;94736;-81
2022/11/17 00:25:02;;;;;;;4.90;2.60;;;;;;;3.57;69.03;99720.55;104990;1298;139475;-78
2022/11/17 00:27:33;;;;;;;5.80;2.70;;;;;;;3.61;69.29;99718.42;105083;1297;97137;-80
2022/11/17 00:30:04;;;;;;;5.90;2.50;;;;;;;3.65;69.08;99715.94;104979;1293;140677;-79
2022/11/17 00:35:24;;;;;;;4.90;2.60;;;;;;;3.64;68.35;99722.08;105011;1295;139964;-79
2022/11/17 00:40:43;;;;;;;4.80;2.20;;;;;;;3.67;68.41;99727.84;104973;1301;140488;-79
2022/11/17 00:43:14;;;;;;;4.30;2.30;;;;;;;3.65;67.61;99728.56;105071;1291;107788;-78
2022/11/17 00:45:45;;;;;;;4.50;2.30;;;;;;;3.64;67.25;99729.96;105121;1297;93308;-78
2022/11/17 00:48:16;;;;;;;4.40;2.10;;;;;;;3.58;66.94;99728.09;104970;1293;139267;-80
2022/11/17 00:50:47;;;;;;;5.70;2.20;;;;;;;3.51;66.95;99732.73;105062;1298;108235;-83
2022/11/17 00:53:18;;;;;;;4.70;2.10;;;;;;;3.44;66.73;99736.45;104979;1303;142265;-79
2022/11/17 00:55:49;;;;;;;5.30;2.30;;;;;;;3.44;67.24;99734.17;105086;1289;107746;-80
2022/11/17 00:58:20;;;;;;;4.30;2.10;;;;;;;3.43;66.49;99734.02;105059;1297;93358;-86
2022/11/17 01:00:51;;;;;;;4.10;2.00;;;;;;;3.35;66.41;99731.27;104974;1300;222363;-80
2022/11/17 01:03:22;;;;;;;4.30;2.40;;;;;;;3.32;66.50;99729.54;105094;1298;107484;-80
2022/11/17 01:05:53;;;;;;;4.30;2.00;;;;;;;3.32;66.66;99730.92;104986;1284;139691;-80
2022/11/17 01:08:24;;;;;;;4.70;2.00;;;;;;;3.37;66.45;99733.35;105081;1293;108648;-82
2022/11/17 01:10:55;;;;;;;5.00;2.10;;;;;;;3.41;66.17;99731.04;104993;1290;141373;-83
2022/11/17 01:13:25;;;;;;;4.40;2.00;;;;;;;3.40;65.73;99730.70;105128;1297;94084;-80
2022/11/17 01:16:01;;;;;;;4.40;2.00;;;;;;;3.43;66.01;99728.05;105050;1291;108698;-84
2022/11/17 01:18:32;;;;;;;4.60;2.00;;;;;;;3.47;65.96;99731.70;104958;1303;140750;-80
2022/11/17 01:21:09;;;;;;;4.80;2.20;;;;;;;3.53;66.26;99730.59;105047;1292;107639;-81
2022/11/17 01:23:41;;;;;;;5.50;2.10;;;;;;;3.56;65.60;99733.73;104945;1292;139372;-84
2022/11/17 01:26:14;;;;;;;4.10;1.70;;;;;;;3.47;65.00;99733.80;105069;1292;93158;-82
2022/11/17 01:28:46;;;;;;;5.10;2.10;;;;;;;3.38;65.07;99732.13;104988;1297;139393;-79
2022/11/17 01:31:19;;;;;;;4.90;2.10;;;;;;;3.38;65.33;99734.05;105059;1292;97942;-82
2022/11/17 01:33:51;;;;;;;4.20;2.00;;;;;;;3.28;64.56;99735.52;105057;1300;106281;-80
2022/11/17 01:36:24;;;;;;;4.40;1.90;;;;;;;3.18;64.66;99736.84;104982;1292;139617;-81
2022/11/17 01:38:54;;;;;;;4.20;1.80;;;;;;;3.10;64.37;99738.10;105086;1296;92834;-81
2022/11/17 01:41:28;;;;;;;4.40;2.20;;;;;;;3.04;64.56;99736.39;105000;1292;139353;-79
2022/11/17 01:44:19;;;;;;;4.60;2.20;;;;;;;3.06;65.17;99737.08;105119;1292;98082;-81
2022/11/17 01:46:51;;;;;;;4.80;2.50;;;;;;;3.11;65.11;99732.30;104939;1277;140961;-80
2022/11/17 01:49:30;;;;;;;4.20;1.90;;;;;;;3.07;64.87;99727.77;105074;1294;93194;-85
2022/11/17 01:52:06;;;;;;;4.40;2.10;;;;;;;3.01;64.39;99731.85;105094;1292;93583;-78
2022/11/17 01:54:40;;;;;;;4.90;2.40;;;;;;;2.98;64.85;99729.06;104977;1297;139861;-80
2022/11/17 01:57:14;;;;;;;5.10;2.10;;;;;;;2.99;64.38;99732.73;105112;1300;99197;-79
2022/11/17 01:59:49;;;;;;;5.60;2.40;;;;;;;2.93;64.81;99733.65;104971;1285;140131;-80
2022/11/17 02:02:20;;;;;;;4.60;2.40;;;;;;;2.94;65.11;99733.83;105059;1292;93218;-85
2022/11/17 02:04:59;;;;;;;4.50;2.20;;;;;;;2.91;64.91;99732.45;104996;1298;140368;-84
2022/11/17 02:07:34;;;;;;;4.60;2.40;;;;;;;2.85;65.03;99732.48;105110;1292;108463;-82
2022/11/17 02:10:07;;;;;;;4.90;2.70;;;;;;;2.82;65.29;99731.61;105102;1298;97830;-80
2022/11/17 02:12:38;;;;;;;4.60;2.50;;;;;;;2.82;65.40;99727.23;104991;1290;140265;-82
2022/11/17 02:15:10;;;;;;;5.20;2.30;;;;;;;2.82;65.55;99728.09;105072;1295;92907;-79
2022/11/17 02:17:42;;;;;;;4.80;2.30;;;;;;;2.81;65.67;99724.60;105000;1291;138584;-80
2022/11/17 02:20:17;;;;;;;4.80;2.60;;;;;;;2.74;65.71;99716.94;105094;1293;107771;-79
2022/11/17 02:23:26;;;;;;;4.70;2.30;;;;;;;2.80;66.34;99716.55;105020;1298;139191;-80
2022/11/17 02:26:15;;;;;;;5.70;2.70;;;;;;;2.92;66.08;99721.74;104788;1298;107768;-81
2022/11/17 02:28:52;;;;;;;4.70;2.40;;;;;;;2.91;65.41;99718.77;104970;1289;138005;-79
2022/11/17 02:31:34;;;;;;;4.80;2.60;;;;;;;2.82;65.71;99717.40;105100;1295;93286;-79
2022/11/17 02:34:15;;;;;;;5.90;2.80;;;;;;;2.83;66.29;99717.40;105103;1297;107972;-80
2022/11/17 02:36:52;;;;;;;4.90;2.60;;;;;;;2.90;66.22;99717.89;104968;1290;138549;-81
2022/11/17 02:39:27;;;;;;;5.10;2.80;;;;;;;2.81;65.85;99721.61;104949;1285;158328;-79
2022/11/17 02:42:04;;;;;;;5.20;2.50;;;;;;;2.76;65.89;99718.85;104971;1299;140286;-79
2022/11/17 02:44:39;;;;;;;5.00;2.70;;;;;;;2.67;66.08;99714.86;105097;1292;93089;-82
2022/11/17 02:47:13;;;;;;;4.80;2.50;;;;;;;2.66;66.19;99720.48;104977;1299;141237;-79
2022/11/17 02:49:50;;;;;;;5.20;2.70;;;;;;;2.64;66.26;99718.91;105098;1297;98107;-83
2022/11/17 02:52:21;;;;;;;5.30;2.80;;;;;;;2.65;66.46;99718.91;105081;1291;107218;-80
2022/11/17 02:54:52;;;;;;;5.50;2.60;;;;;;;2.65;66.44;99721.88;104974;1293;140097;-79
2022/11/17 02:57:31;;;;;;;5.00;2.40;;;;;;;2.69;66.29;99724.48;105100;1293;93262;-79
2022/11/17 03:00:04;;;;;;;4.70;2.80;;;;;;;2.73;66.78;99719.38;104955;1299;140275;-82
2022/11/17 03:02:54;;;;;;;5.50;2.60;;;;;;;2.75;66.24;99719.90;105105;1292;98503;-79
2022/11/17 03:05:33;;;;;;;4.90;2.50;;;;;;;2.74;66.25;99721.30;104938;1297;140729;-84
2022/11/17 03:08:19;;;;;;;5.10;2.70;;;;;;;2.66;65.72;99720.48;105084;1293;92855;-78
2022/11/17 03:10:57;;;;;;;5.20;2.70;;;;;;;2.63;66.06;99720.86;104959;1296;138651;-79
2022/11/17 03:13:38;;;;;;;5.00;2.60;;;;;;;2.59;66.22;99721.55;105059;1294;108832;-81
2022/11/17 03:16:20;;;;;;;6.10;2.90;;;;;;;2.58;66.02;99721.04;105103;1293;97891;-79
2022/11/17 03:19:01;;;;;;;5.40;2.50;;;;;;;2.63;66.73;99716.48;104963;1290;141234;-81
2022/11/17 03:21:36;;;;;;;6.50;2.90;;;;;;;2.67;66.25;99715.73;105088;1287;93182;-79
2022/11/17 03:24:12;;;;;;;4.90;2.50;;;;;;;2.63;65.77;99713.66;104990;1291;140984;-79
2022/11/17 03:26:47;;;;;;;5.10;2.40;;;;;;;2.60;66.25;99711.56;105064;1287;108562;-79
2022/11/17 03:29:21;;;;;;;5.50;2.70;;;;;;;2.61;66.23;99714.36;104983;1294;140525;-78
2022/11/17 03:31:57;;;;;;;5.30;2.70;;;;;;;2.67;66.56;99712.40;105071;1295;107045;-79
2022/11/17 03:34:32;;;;;;;5.40;2.60;;;;;;;2.73;66.27;99711.33;105049;1294;93342;-84
2022/11/17 03:37:06;;;;;;;5.40;2.60;;;;;;;2.74;66.50;99713.07;104973;1299;141782;-80
2022/11/17 03:39:41;;;;;;;5.20;2.50;;;;;;;2.77;65.88;99715.52;105096;1297;108599;-81
2022/11/17 03:42:17;;;;;;;5.10;2.70;;;;;;;2.67;65.77;99717.67;104968;1292;139049;-81
2022/11/17 03:44:53;;;;;;;4.90;2.50;;;;;;;2.57;65.93;99716.49;105077;1291;107387;-80
2022/11/17 03:47:27;;;;;;;5.70;2.80;;;;;;;2.54;66.27;99715.80;104987;1291;141006;-80
2022/11/17 03:50:03;;;;;;;5.10;2.60;;;;;;;2.52;66.56;99718.78;105086;1294;93253;-80
2022/11/17 03:52:36;;;;;;;5.20;3.00;;;;;;;2.52;66.89;99717.73;105058;1299;108397;-79
2022/11/17 03:55:09;;;;;;;5.70;2.80;;;;;;;2.57;66.69;99717.89;105072;1290;96453;-78
2022/11/17 03:57:46;;;;;;;5.80;2.40;;;;;;;2.49;66.34;99714.95;105064;1299;107525;-79
2022/11/17 04:00:19;;;;;;;5.40;2.70;;;;;;;2.45;67.26;99709.71;104997;1294;138758;-79
2022/11/17 04:02:57;;;;;;;5.60;2.80;;;;;;;2.50;67.05;99707.23;105062;1288;93377;-80
2022/11/17 04:05:28;;;;;;;5.70;2.60;;;;;;;2.47;67.04;99706.73;104967;1293;139898;-79
2022/11/17 04:07:58;;;;;;;5.80;2.90;;;;;;;2.51;67.22;99705.64;105068;1293;98364;-81
2022/11/17 04:10:29;;;;;;;5.70;2.70;;;;;;;2.50;67.32;99708.98;105043;1298;108243;-80
2022/11/17 04:15:57;;;;;;;5.20;2.40;;;;;;;2.55;67.49;99711.77;105079;1298;92942;-82
2022/11/17 04:18:28;;;;;;;5.10;2.50;;;;;;;2.56;67.06;99714.22;104963;1299;140004;-79
2022/11/17 04:20:59;;;;;;;5.30;3.00;;;;;;;2.49;67.19;99712.67;105090;1290;98795;-83
2022/11/17 04:23:30;;;;;;;5.40;2.80;;;;;;;2.52;67.41;99711.06;104965;1291;138052;-80
2022/11/17 04:28:50;;;;;;;5.40;2.40;;;;;;;2.48;67.08;99718.11;104954;1293;139773;-79
2022/11/17 04:31:23;;;;;;;5.00;2.60;;;;;;;2.46;67.49;99718.29;105113;1298;109003;-79
2022/11/17 04:33:56;;;;;;;6.10;2.50;;;;;;;2.47;67.94;99721.27;105088;1293;96983;-80
2022/11/17 04:36:28;;;;;;;5.20;2.80;;;;;;;2.53;67.71;99721.41;104952;1298;140496;-79
2022/11/17 04:39:00;;;;;;;5.30;2.60;;;;;;;2.50;67.35;99720.20;105088;1295;93230;-79
2022/11/17 04:44:20;;;;;;;6.00;2.80;;;;;;;2.47;66.96;99718.81;105072;1292;108417;-80
2022/11/17 04:46:51;;;;;;;5.80;2.70;;;;;;;2.46;67.46;99719.52;104958;1277;139258;-82
2022/11/17 04:49:23;;;;;;;5.60;2.60;;;;;;;2.46;67.64;99719.00;105076;1291;107625;-80
2022/11/17 04:51:54;;;;;;;5.50;2.40;;;;;;;2.48;67.40;99720.02;105063;1292;93691;-79
2022/11/17 04:54:26;;;;;;;5.50;2.80;;;;;;;2.45;67.50;99721.63;104947;1290;139887;-80
2022/11/17 04:56:57;;;;;;;7.20;3.90;;;;;;;2.40;67.05;99725.50;105089;1299;107472;-81
2022/11/17 04:59:27;;;;;;;5.30;2.40;;;;;;;2.34;67.17;99730.08;105015;1284;138283;-79
2022/11/17 05:01:58;;;;;;;6.20;2.70;;;;;;;2.30;67.58;99733.06;105071;1284;107530;-80
2022/11/17 05:07:24;;;;;;;5.00;2.60;;;;;;;2.38;67.67;99726.73;105096;1294;92863;-81
2022/11/17 05:09:54;;;;;;;5.30;2.40;;;;;;;2.41;67.35;99727.06;105067;1292;108533;-79
2022/11/17 05:17:03;;;;;;;5.70;2.50;;;;;;;2.52;67.51;99727.90;105087;1299;107264;-79
2022/11/17 05:18:04;;;;;;;5.40;2.60;;;;;;;2.52;67.17;99726.14;104938;1299;139768;-81
2022/11/17 05:20:35;;;;;;;5.40;2.80;;;;;;;2.52;67.11;99727.91;105074;1299;92957;-85
2022/11/17 05:25:56;;;;;;;5.10;2.80;;;;;;;2.44;66.99;99720.58;105084;1294;98057;-81
2022/11/17 05:28:26;;;;;;;5.90;2.70;;;;;;;2.41;67.06;99714.46;104992;1300;107482;-83
2022/11/17 05:30:57;;;;;;;5.50;2.80;;;;;;;2.44;67.29;99717.25;104880;1294;139545;-88
2022/11/17 05:33:28;;;;;;;8.20;4.30;;;;;;;2.39;66.54;99710.61;104974;1292;93269;-79
2022/11/17 05:36:07;;;;;;;5.80;2.50;;;;;;;2.43;67.31;99713.75;104862;1285;138389;-84
2022/11/17 05:38:37;;;;;;;6.00;2.70;;;;;;;2.45;66.89;99715.31;105041;1294;97153;-80
2022/11/17 05:41:08;;;;;;;5.10;2.30;;;;;;;2.46;67.04;99713.02;104919;1284;141006;-82
2022/11/17 05:43:39;;;;;;;5.10;2.40;;;;;;;2.39;66.31;99714.83;104870;1300;93347;-79
2022/11/17 05:46:10;;;;;;;5.00;2.50;;;;;;;2.33;66.49;99712.91;105072;1285;93432;-81
2022/11/17 05:48:40;;;;;;;5.50;2.60;;;;;;;2.34;66.66;99719.39;104933;1296;138293;-78
2022/11/17 05:51:11;;;;;;;5.30;2.70;;;;;;;2.37;66.71;99718.16;105070;1286;98232;-78
2022/11/17 05:53:42;;;;;;;5.00;2.40;;;;;;;2.37;66.35;99719.38;104948;1284;138045;-78
2022/11/17 05:56:29;;;;;;;4.70;2.30;;;;;;;2.33;66.76;99721.14;105074;1284;93104;-79
2022/11/17 05:59:07;;;;;;;5.60;2.30;;;;;;;2.31;66.43;99725.88;104939;1285;140245;-79
2022/11/17 06:01:42;;;;;;;5.60;2.30;;;;;;;2.31;66.84;99721.16;105089;1278;108476;-84
2022/11/17 06:04:17;;;;;;;5.10;2.30;;;;;;;2.28;66.45;99725.18;105062;1292;97985;-77
2022/11/17 06:06:48;;;;;;;4.80;2.40;;;;;;;2.26;66.62;99725.37;104925;1285;138225;-80
2022/11/17 06:09:19;;;;;;;5.10;2.50;;;;;;;2.28;66.44;99722.39;104994;1292;93130;-79
2022/11/17 06:11:50;;;;;;;6.70;2.40;;;;;;;2.31;66.38;99722.73;104946;1297;140081;-81
2022/11/17 06:14:20;;;;;;;4.90;2.40;;;;;;;2.34;66.12;99728.33;105032;1276;108470;-80
2022/11/17 06:16:56;;;;;;;5.00;2.50;;;;;;;2.36;65.84;99731.12;104941;1278;139911;-79
2022/11/17 06:19:32;;;;;;;5.00;2.50;;;;;;;2.32;65.71;99734.29;105062;1284;106108;-79
2022/11/17 06:22:03;;;;;;;5.00;2.40;;;;;;;2.29;65.70;99737.98;105041;1292;94276;-81
2022/11/17 06:24:44;;;;;;;5.00;2.50;;;;;;;2.24;66.16;99741.85;104991;1299;139737;-81
2022/11/17 06:27:16;;;;;;;5.50;2.70;;;;;;;2.25;66.41;99740.27;104977;1286;108151;-79
2022/11/17 06:29:47;;;;;;;5.20;2.60;;;;;;;2.29;66.25;99738.66;104993;1292;139224;-79
2022/11/17 06:32:19;;;;;;;6.80;3.50;;;;;;;2.31;66.59;99738.15;105055;1290;107429;-78
2022/11/17 06:34:51;;;;;;;7.40;3.40;;;;;;;2.34;66.36;99740.59;104966;1298;139362;-79
2022/11/17 06:37:26;;;;;;;5.60;2.70;;;;;;;2.39;66.36;99736.20;105074;1296;92886;-79
2022/11/17 06:39:56;;;;;;;5.10;2.30;;;;;;;2.37;65.85;99737.95;105053;1299;109372;-84
2022/11/17 06:45:12;;;;;;;5.80;3.00;;;;;;;2.32;65.81;99743.92;105071;1292;107572;-80
2022/11/17 06:47:43;;;;;;;5.00;2.50;;;;;;;2.28;65.58;99745.86;104960;1299;139987;-80
2022/11/17 06:50:13;;;;;;;6.20;2.90;;;;;;;2.22;65.66;99746.05;105113;1294;92805;-83
2022/11/17 06:52:44;;;;;;;5.00;2.20;;;;;;;2.20;65.61;99744.14;105069;1292;108350;-79
2022/11/17 06:55:15;;;;;;;4.80;2.70;;;;;;;2.18;65.77;99740.98;105119;1295;98157;-78
2022/11/17 06:57:46;;;;;;;5.50;2.70;;;;;;;2.23;66.11;99737.30;105068;1299;107902;-80
2022/11/17 07:00:23;;;;;;;6.10;2.80;;;;;;;2.27;65.92;99740.42;104963;1294;138741;-79
2022/11/17 07:02:58;;;;;;;6.10;3.20;;;;;;;2.24;65.76;99737.82;105087;1295;93243;-80
2022/11/17 07:05:29;;;;;;;6.60;3.00;;;;;;;2.26;66.10;99741.66;104948;1291;138905;-79
2022/11/17 07:08:01;;;;;;;6.20;3.00;;;;;;;2.30;65.98;99745.51;105083;1292;98291;-79
2022/11/17 07:10:35;;;;;;;6.80;3.20;;;;;;;2.37;65.81;99741.81;105032;1285;107448;-83
2022/11/17 07:13:06;;;;;;;6.70;2.40;;;;;;;2.42;65.52;99741.44;104924;1297;139740;-80
2022/11/17 07:15:37;;;;;;;5.50;2.70;;;;;;;2.44;64.96;99741.78;105098;1287;92835;-80
2022/11/17 07:18:07;;;;;;;6.00;2.70;;;;;;;2.43;64.80;99739.67;104989;1294;138757;-79
2022/11/17 07:20:38;;;;;;;5.10;2.60;;;;;;;2.43;64.63;99740.91;105099;1292;98997;-80
2022/11/17 07:23:08;;;;;;;6.70;2.90;;;;;;;2.49;65.40;99743.16;104980;1299;138901;-80
2022/11/17 07:25:39;;;;;;;5.70;2.70;;;;;;;2.57;65.00;99744.71;105088;1297;93992;-79
2022/11/17 07:28:10;;;;;;;6.40;3.10;;;;;;;2.52;63.96;99745.77;105066;1291;94641;-80
2022/11/17 07:30:40;;;;;;;6.00;2.70;;;;;;;2.51;64.17;99751.02;105012;1277;137988;-81
2022/11/17 07:33:11;;;;;;;6.90;2.90;;;;;;;2.52;64.18;99749.45;105080;1294;97234;-80
2022/11/17 07:35:42;;;;;;;5.00;2.60;;;;;;;2.53;64.30;99751.02;104931;1294;139450;-82
2022/11/17 07:38:12;;;;;;;5.70;2.90;;;;;;;2.45;63.24;99758.07;105103;1289;93227;-80
2022/11/17 07:40:43;;;;;;;6.30;2.90;;;;;;;2.35;63.29;99764.23;105121;1294;93191;-82
2022/11/17 07:43:14;;;;;;;5.40;2.70;;;;;;;2.29;63.63;99764.95;105123;1299;107428;-79
2022/11/17 07:45:44;;;;;;;6.10;2.90;;;;;;;2.21;63.58;99765.33;105115;1284;98000;-78
2022/11/17 07:48:15;;;;;;;5.60;2.80;;;;;;;2.20;64.28;99767.24;104964;1299;139681;-79
2022/11/17 07:50:45;;;;;;;6.30;2.80;;;;;;;2.24;63.76;99769.52;105081;1294;92902;-80
2022/11/17 07:53:16;;;;;;;6.50;3.00;;;;;;;2.16;62.96;99777.06;104934;1292;140194;-81
2022/11/17 07:55:47;;;;;;;6.30;3.20;;;;;;;2.05;63.38;99778.85;105065;1299;108998;-80
2022/11/17 07:58:17;;;;;;;6.20;3.20;;;;;;;1.95;63.36;99780.77;105067;1295;96944;-80
2022/11/17 08:00:48;;;;;;;6.30;2.90;;;;;;;1.88;63.60;99777.98;104959;1294;139662;-81
2022/11/17 08:03:19;;;;;;;6.50;3.20;;;;;;;1.83;63.80;99772.39;105072;1294;93160;-82
2022/11/17 08:05:50;;;;;;;6.70;3.50;;;;;;;1.80;63.53;99772.58;104990;1294;139875;-82
2022/11/17 08:08:20;;;;;;;6.80;3.30;;;;;;;1.79;63.80;99771.52;105092;1294;108448;-83
2022/11/17 08:10:51;;;;;;;7.50;3.70;;;;;;;1.75;63.79;99768.72;105043;1287;139832;-81
2022/11/17 08:13:23;;;;;;;6.70;3.90;;;;;;;1.76;64.22;99770.30;105105;1299;107397;-81
2022/11/17 08:15:58;;;;;;;7.50;4.10;;;;;;;1.78;64.36;99775.55;105087;1299;92837;-80
2022/11/17 08:18:30;;;;;;;8.20;4.10;;;;;;;1.73;64.09;99777.13;104985;1294;138411;-83
2022/11/17 08:21:06;;;;;;;7.10;4.10;;;;;;;1.72;64.33;99773.98;105095;1294;109102;-80
2022/11/17 08:23:37;;;;;;;9.10;4.50;;;;;;;1.73;64.41;99773.09;104964;1294;141195;-82
2022/11/17 08:26:10;;;;;;;7.40;4.30;;;;;;;1.74;64.58;99773.27;105102;1298;107415;-83
2022/11/17 08:28:40;;;;;;;7.20;4.20;;;;;;;1.74;64.80;99776.77;105099;1299;94080;-82
2022/11/17 08:31:11;;;;;;;8.20;4.70;;;;;;;1.73;64.46;99776.95;104974;1293;137948;-81
2022/11/17 08:33:42;;;;;;;7.50;4.20;;;;;;;1.77;64.74;99770.99;105102;1294;108506;-79
2022/11/17 08:36:12;;;;;;;6.30;4.10;;;;;;;1.84;64.87;99776.59;104967;1292;139615;-79
2022/11/17 08:38:43;;;;;;;6.30;3.90;;;;;;;1.89;64.41;99773.25;105087;1284;107478;-79
2022/11/17 08:41:14;;;;;;;6.70;4.20;;;;;;;1.93;64.49;99773.60;104970;1292;138903;-80
2022/11/17 08:43:47;;;;;;;6.70;4.00;;;;;;;1.97;64.38;99771.85;104945;1299;93595;-81
2022/11/17 08:46:17;;;;;;;6.80;3.90;;;;;;;1.97;64.33;99769.23;105090;1291;108423;-79
2022/11/17 08:48:48;;;;;;;6.30;3.90;;;;;;;1.99;64.11;99768.70;104995;1293;138246;-80
2022/11/17 08:51:27;;;;;;;6.90;4.40;;;;;;;2.01;64.20;99767.29;105093;1299;107344;-82
2022/11/17 08:54:00;;;;;;;7.10;4.20;;;;;;;2.04;64.13;99768.34;104991;1291;140651;-84
2022/11/17 08:56:30;;;;;;;6.90;4.40;;;;;;;2.02;64.09;99769.04;105112;1295;92862;-80
2022/11/17 08:59:03;;;;;;;6.70;4.20;;;;;;;2.08;64.21;99768.33;104994;1293;138415;-81
2022/11/17 09:01:34;;;;;;;7.10;4.20;;;;;;;2.08;63.82;99764.48;105099;1294;98113;-81
2022/11/17 09:04:05;;;;;;;7.00;4.20;;;;;;;2.02;63.31;99761.69;105070;1294;108232;-80
2022/11/17 09:06:36;;;;;;;8.40;4.60;;;;;;;1.97;64.33;99766.42;104982;1292;140238;-80
2022/11/17 09:09:07;;;;;;;7.40;4.50;;;;;;;2.05;64.51;99765.18;105096;1294;92793;-81
2022/11/17 09:11:38;;;;;;;7.00;4.30;;;;;;;2.08;63.97;99766.05;104990;1293;139499;-80
2022/11/17 09:14:09;;;;;;;6.70;4.20;;;;;;;2.04;63.70;99761.86;105115;1297;98165;-80
2022/11/17 09:16:40;;;;;;;7.40;4.50;;;;;;;2.02;63.89;99760.98;105095;1299;107164;-81
2022/11/17 09:19:10;;;;;;;7.40;4.40;;;;;;;2.00;64.14;99764.31;104971;1294;138515;-83
2022/11/17 09:21:41;;;;;;;7.30;4.80;;;;;;;1.94;63.33;99764.50;105106;1292;92811;-80
2022/11/17 09:24:11;;;;;;;8.20;5.00;;;;;;;1.90;64.23;99765.38;104957;1293;139958;-80
2022/11/17 09:26:42;;;;;;;7.30;4.90;;;;;;;1.97;64.33;99760.46;105086;1298;98092;-80
2022/11/17 09:29:13;;;;;;;7.20;4.80;;;;;;;2.01;64.36;99763.09;104941;1287;139967;-80
2022/11/17 09:31:43;;;;;;;7.10;4.40;;;;;;;1.95;63.25;99763.80;105081;1299;93762;-83
2022/11/17 09:34:14;;;;;;;7.00;4.80;;;;;;;1.84;63.42;99760.14;105091;1292;93207;-84
2022/11/17 09:36:47;;;;;;;7.50;5.10;;;;;;;1.76;63.49;99755.42;104997;1293;139311;-82
2022/11/17 09:39:18;;;;;;;7.60;4.90;;;;;;;1.76;64.22;99757.34;105087;1294;98124;-82
2022/11/17 09:41:51;;;;;;;8.20;5.50;;;;;;;1.80;64.19;99761.19;104971;1294;141510;-80
2022/11/17 09:44:33;;;;;;;9.30;5.40;;;;;;;1.80;64.55;99759.27;105062;1293;93377;-82
2022/11/17 09:47:15;;;;;;;8.30;5.40;;;;;;;1.83;64.26;99752.61;104997;1294;140506;-80
2022/11/17 09:49:53;;;;;;;8.80;5.40;;;;;;;1.89;64.93;99755.06;105106;1294;109472;-79
2022/11/17 09:52:34;;;;;;;8.20;4.70;;;;;;;1.97;64.78;99755.58;105096;1294;97889;-80
2022/11/17 09:55:17;;;;;;;7.70;4.50;;;;;;;1.98;64.09;99754.17;104942;1299;138057;-80
2022/11/17 09:57:52;;;;;;;6.90;4.40;;;;;;;1.91;64.23;99753.83;105060;1299;93576;-84
2022/11/17 10:00:25;;;;;;;8.50;5.50;;;;;;;1.85;64.30;99750.16;104995;1297;139430;-79
2022/11/17 10:02:56;;;;;;;7.40;5.00;;;;;;;1.88;64.70;99738.26;105047;1295;108294;-80
2022/11/17 10:05:30;;;;;;;8.60;5.20;;;;;;;1.92;64.24;99740.01;104994;1292;141034;-80
2022/11/17 10:08:07;;;;;;;8.20;5.00;;;;;;;1.92;63.97;99739.65;105068;1294;107451;-80
2022/11/17 10:10:42;;;;;;;8.40;5.50;;;;;;;1.90;64.26;99731.61;105107;1292;93213;-81
2022/11/17 10:13:22;;;;;;;8.30;5.60;;;;;;;1.90;63.82;99731.59;105090;1298;92965;-85
2022/11/17 10:15:57;;;;;;;8.90;5.90;;;;;;;1.91;63.83;99736.48;105083;1294;108221;-89
2022/11/17 10:18:29;;;;;;;8.60;5.60;;;;;;;1.94;64.20;99731.24;105007;1284;140073;-82
2022/11/17 10:21:08;;;;;;;8.70;5.70;;;;;;;1.95;63.69;99727.73;105095;1292;106530;-82
2022/11/17 10:23:43;;;;;;;8.70;5.90;;;;;;;1.92;63.79;99729.32;104990;1295;139978;-79
2022/11/17 10:26:17;;;;;;;10.00;5.70;;;;;;;1.91;63.78;99725.65;105135;1298;92923;-83
2022/11/17 10:28:48;;;;;;;8.50;5.80;;;;;;;1.91;64.09;99722.67;104985;1292;140120;-80
2022/11/17 10:31:20;;;;;;;9.80;5.60;;;;;;;1.96;64.70;99719.33;105100;1300;98112;-81
2022/11/17 10:33:52;;;;;;;10.50;5.60;;;;;;;2.04;64.59;99724.04;105102;1293;107812;-81
2022/11/17 10:36:27;;;;;;;9.20;5.80;;;;;;;2.04;63.97;99728.41;104983;1299;140870;-80
2022/11/17 10:39:00;;;;;;;10.00;5.80;;;;;;;2.00;64.04;99730.70;105116;1292;93010;-82
2022/11/17 10:41:38;;;;;;;10.20;6.20;;;;;;;2.03;64.04;99728.05;104973;1292;140207;-80
2022/11/17 10:44:21;;;;;;;10.00;6.10;;;;;;;2.07;64.45;99725.09;105094;1298;98089;-81
2022/11/17 10:47:03;;;;;;;10.20;6.30;;;;;;;2.06;64.01;99727.54;104984;1292;140644;-82
2022/11/17 10:49:38;;;;;;;10.10;6.10;;;;;;;2.07;63.91;99728.05;105085;1294;93268;-80
2022/11/17 10:52:18;;;;;;;9.20;6.10;;;;;;;2.05;63.62;99731.21;105115;1284;92991;-80
2022/11/17 10:54:49;;;;;;;9.70;6.10;;;;;;;1.98;63.58;99725.29;104992;1293;138895;-80
2022/11/17 10:57:23;;;;;;;10.20;7.10;;;;;;;1.97;63.56;99722.65;105083;1294;97923;-80
2022/11/17 10:59:56;;;;;;;11.10;7.20;;;;;;;2.02;64.07;99724.39;104971;1299;139860;-80
2022/11/17 11:02:34;;;;;;;10.90;6.80;;;;;;;2.09;64.12;99722.09;105039;1284;93697;-79
2022/11/17 11:05:13;;;;;;;10.60;6.70;;;;;;;2.13;63.45;99718.94;104976;1288;140090;-80
2022/11/17 11:07:44;;;;;;;10.70;6.50;;;;;;;2.10;63.46;99718.95;105071;1295;108419;-81
2022/11/17 11:10:18;;;;;;;10.60;6.70;;;;;;;2.05;62.90;99721.23;105089;1295;98298;-82
2022/11/17 11:12:53;;;;;;;10.10;6.60;;;;;;;2.04;63.25;99716.15;104964;1292;142245;-80
2022/11/17 11:15:27;;;;;;;9.30;6.10;;;;;;;2.07;62.72;99715.98;105107;1290;92867;-80
2022/11/17 11:17:58;;;;;;;9.70;6.90;;;;;;;2.07;62.58;99714.95;104989;1294;139654;-79
2022/11/17 11:20:41;;;;;;;10.20;7.00;;;;;;;2.08;63.06;99709.33;105080;1294;107402;-84
2022/11/17 11:23:20;;;;;;;10.90;6.80;;;;;;;2.11;62.41;99715.96;105011;1292;140204;-83
2022/11/17 11:25:57;;;;;;;10.90;7.20;;;;;;;2.05;62.46;99717.38;105088;1285;107946;-82
2022/11/17 11:28:44;;;;;;;10.30;6.70;;;;;;;2.00;62.40;99717.92;105099;1294;93353;-80
2022/11/17 11:31:28;;;;;;;11.10;7.40;;;;;;;1.95;62.03;99722.14;105101;1294;93107;-84
2022/11/17 11:34:14;;;;;;;9.70;6.40;;;;;;;2.00;62.40;99712.48;105122;1295;108085;-80
2022/11/17 11:36:50;;;;;;;9.50;6.60;;;;;;;2.03;61.95;99707.75;105013;1297;139400;-82
2022/11/17 11:39:31;;;;;;;10.00;6.70;;;;;;;2.06;61.75;99708.80;105088;1289;105550;-79
2022/11/17 11:42:23;;;;;;;10.40;6.40;;;;;;;2.00;61.51;99709.52;104998;1299;139869;-80
2022/11/17 11:45:06;;;;;;;10.50;6.10;;;;;;;2.07;61.73;99710.73;105147;1292;93172;-80
2022/11/17 11:47:55;;;;;;;9.40;6.30;;;;;;;2.09;61.47;99703.89;104979;1295;138007;-84
2022/11/17 11:50:30;;;;;;;9.80;6.00;;;;;;;2.08;60.88;99706.70;105139;1292;97934;-81
2022/11/17 11:53:07;;;;;;;9.80;6.40;;;;;;;2.06;61.28;99705.82;104986;1284;137626;-81
2022/11/17 11:55:40;;;;;;;9.20;6.10;;;;;;;2.08;61.05;99698.11;105078;1294;93130;-81
2022/11/17 11:58:17;;;;;;;8.80;6.20;;;;;;;2.09;61.26;99697.41;105122;1299;92857;-83
2022/11/17 12:00:49;;;;;;;9.70;5.90;;;;;;;2.13;61.94;99699.49;104969;1294;139066;-80
2022/11/17 12:03:29;;;;;;;9.40;6.00;;;;;;;2.23;61.55;99701.21;105096;1292;98005;-82
2022/11/17 12:09:14;;;;;;;8.70;5.80;;;;;;;2.18;60.24;99700.17;105052;1294;92859;-82
2022/11/17 12:14:36;;;;;;;10.20;6.80;;;;;;;2.14;60.63;99703.00;105098;1291;108467;-80
2022/11/17 12:17:16;;;;;;;10.10;6.50;;;;;;;2.20;60.47;99695.61;105008;1294;139556;-79
2022/11/17 12:19:58;;;;;;;10.70;6.30;;;;;;;2.18;59.76;99690.89;105055;1294;107547;-79
2022/11/17 12:23:08;;;;;;;9.00;5.70;;;;;;;2.15;59.94;99692.84;105117;1294;93291;-85
2022/11/17 12:25:46;;;;;;;9.40;6.20;;;;;;;2.09;60.11;99684.45;104419;1302;93208;-84
2022/11/17 12:28:34;;;;;;;8.60;5.80;;;;;;;2.15;60.53;99687.23;105052;1292;108401;-85
2022/11/17 12:31:05;;;;;;;9.80;6.10;;;;;;;2.30;60.96;99684.73;104991;1298;138431;-82
2022/11/17 12:34:31;;;;;;;13.30;5.90;;;;;;;2.37;60.06;99681.19;105107;1297;107712;-82
2022/11/17 12:37:26;;;;;;;10.00;5.70;;;;;;;2.37;59.48;99686.10;104418;1305;139972;-84